Time;durP1;ratioP1;P1;durP2;ratioP2;P2;SDS_P1;SDS_P2;PMS_P1;PMS_P2;Temp;Humidity;BMP_temperature;BMP_pressure;BME280_temperature;BME280_humidity;BME280_pressure;Samples;Min_cycle;Max_cycle;Signal;HPM_P1;HPM_P2
2023/08/16 00:01:02;;;;;;;1.95;1.38;;;24.40;73.80;;;;;;5056274;28;20057;-35
2023/08/16 00:03:29;;;;;;;2.03;1.83;;;24.40;73.80;;;;;;5070007;28;20036;-35
2023/08/16 00:05:55;;;;;;;1.90;1.57;;;24.40;73.80;;;;;;5076752;28;20033;-35
2023/08/16 00:08:21;;;;;;;1.60;1.50;;;24.40;73.80;;;;;;5084664;28;20043;-35
2023/08/16 00:10:47;;;;;;;2.47;1.98;;;24.40;73.80;;;;;;5075836;28;20032;-35
2023/08/16 00:13:13;;;;;;;2.27;1.87;;;24.40;73.80;;;;;;5067910;28;20029;-35
2023/08/16 00:15:39;;;;;;;1.83;1.73;;;24.40;73.80;;;;;;5067721;28;20026;-36
2023/08/16 00:18:06;;;;;;;2.33;1.60;;;24.40;73.80;;;;;;5066613;28;20040;-35
2023/08/16 00:20:32;;;;;;;1.90;1.80;;;24.40;73.80;;;;;;5073630;28;20028;-35
2023/08/16 00:22:58;;;;;;;2.23;1.80;;;24.40;73.80;;;;;;5064983;28;20033;-35
2023/08/16 00:25:25;;;;;;;1.83;1.73;;;24.40;73.80;;;;;;5068954;28;20094;-36
2023/08/16 00:28:09;;;;;;;1.80;1.70;;;24.50;74.00;;;;;;5065443;28;20045;-35
2023/08/16 00:30:36;;;;;;;1.75;1.58;;;24.50;74.00;;;;;;5056863;28;20506;-36
2023/08/16 00:33:02;;;;;;;1.98;1.67;;;24.50;74.00;;;;;;5060034;28;20060;-36
2023/08/16 00:35:28;;;;;;;2.17;1.98;;;24.50;74.10;;;;;;5075852;28;20370;-35
2023/08/16 00:37:58;;;;;;;2.20;1.50;;;24.50;74.10;;;;;;5060612;28;20032;-36
2023/08/16 00:40:24;;;;;;;2.50;2.00;;;24.50;74.00;;;;;;5065455;28;20021;-35
2023/08/16 00:42:50;;;;;;;1.88;1.77;;;24.50;74.00;;;;;;5072064;28;20054;-36
2023/08/16 00:45:17;;;;;;;2.35;2.15;;;24.50;74.10;;;;;;5059686;28;20031;-35
2023/08/16 00:47:44;;;;;;;2.28;2.08;;;24.50;74.10;;;;;;5066880;28;20043;-35
2023/08/16 00:50:10;;;;;;;2.17;2.05;;;24.50;74.20;;;;;;5049878;28;20039;-35
2023/08/16 00:52:36;;;;;;;2.77;2.20;;;24.50;74.10;;;;;;5061857;28;20040;-36
2023/08/16 00:55:02;;;;;;;2.65;2.10;;;24.50;74.10;;;;;;5038195;28;20056;-36
2023/08/16 00:57:30;;;;;;;2.03;1.83;;;24.50;74.10;;;;;;5052176;28;20061;-35
2023/08/16 00:59:56;;;;;;;2.63;1.80;;;24.50;74.20;;;;;;5036164;28;20035;-36
2023/08/16 01:02:23;;;;;;;2.08;1.92;;;24.50;74.00;;;;;;5055822;28;20040;-35
2023/08/16 01:04:49;;;;;;;;;;;24.50;74.00;;;;;;5052052;28;20025;-35
2023/08/16 01:07:15;;;;;;;2.35;2.03;;;24.50;74.00;;;;;;5059430;28;19959;-36
2023/08/16 01:09:41;;;;;;;2.10;1.90;;;24.60;74.10;;;;;;5052879;28;20104;-35
2023/08/16 01:12:15;;;;;;;1.70;1.60;;;24.60;74.10;;;;;;5032231;28;20033;-36
2023/08/16 01:15:05;;;;;;;1.90;1.80;;;24.50;74.10;;;;;;5035169;28;20037;-35
2023/08/16 01:17:31;;;;;;;2.20;1.90;;;24.60;74.00;;;;;;5034264;28;20150;-36
2023/08/16 01:19:57;;;;;;;2.17;1.98;;;24.60;74.00;;;;;;5039399;28;20092;-35
2023/08/16 01:22:36;;;;;;;1.83;1.67;;;24.60;74.00;;;;;;5054522;28;20043;-36
2023/08/16 01:25:09;;;;;;;1.83;1.70;;;24.60;74.00;;;;;;5044619;28;20029;-35
2023/08/16 01:27:36;;;;;;;2.20;2.00;;;24.60;74.00;;;;;;5045966;28;20046;-35
2023/08/16 01:30:04;;;;;;;2.10;1.90;;;24.60;74.00;;;;;;5058546;28;20104;-36
2023/08/16 01:32:31;;;;;;;3.40;1.83;;;24.60;73.90;;;;;;5056611;28;20040;-35
2023/08/16 01:34:58;;;;;;;2.22;1.90;;;24.60;73.90;;;;;;5063870;28;20505;-35
2023/08/16 01:37:24;;;;;;;2.28;1.90;;;24.60;73.90;;;;;;5057074;28;20114;-35
2023/08/16 01:39:50;;;;;;;2.23;2.07;;;24.60;73.90;;;;;;5063472;28;20072;-36
2023/08/16 01:42:17;;;;;;;2.47;1.83;;;24.60;73.90;;;;;;5055409;28;20286;-35
2023/08/16 01:44:46;;;;;;;1.73;1.63;;;24.60;73.80;;;;;;5046030;28;20300;-35
2023/08/16 01:47:13;;;;;;;1.70;1.60;;;24.60;73.80;;;;;;5048221;28;20041;-35
2023/08/16 01:49:42;;;;;;;2.30;2.10;;;24.60;73.70;;;;;;5040286;28;20045;-35
2023/08/16 01:52:09;;;;;;;2.10;1.90;;;24.60;73.70;;;;;;5014738;28;20088;-36
2023/08/16 01:54:35;;;;;;;2.08;1.95;;;24.60;73.80;;;;;;5056065;28;20035;-36
2023/08/16 01:57:01;;;;;;;2.88;2.53;;;24.60;73.70;;;;;;5060980;28;20079;-36
2023/08/16 01:59:27;;;;;;;2.90;2.30;;;24.60;73.70;;;;;;5054350;28;20056;-36
2023/08/16 02:01:53;;;;;;;2.63;2.00;;;24.60;73.70;;;;;;5056271;28;20108;-35
2023/08/16 02:04:19;;;;;;;2.03;1.77;;;24.60;73.80;;;;;;5063516;28;20018;-36
2023/08/16 02:06:45;;;;;;;1.70;1.60;;;24.60;73.80;;;;;;5055914;28;20044;-36
2023/08/16 02:09:11;;;;;;;2.10;1.90;;;24.60;74.00;;;;;;5061840;28;20092;-36
2023/08/16 02:11:37;;;;;;;1.95;1.80;;;24.60;73.80;;;;;;5062582;28;20075;-36
2023/08/16 02:14:04;;;;;;;2.25;1.98;;;24.60;74.10;;;;;;5062118;28;20033;-36
2023/08/16 02:16:30;;;;;;;2.37;2.00;;;24.60;74.20;;;;;;5058416;28;20049;-36
2023/08/16 02:18:56;;;;;;;2.25;1.90;;;24.60;74.00;;;;;;5057375;28;20294;-35
2023/08/16 02:21:22;;;;;;;2.30;2.10;;;24.60;74.00;;;;;;5055819;28;20021;-36
2023/08/16 02:23:48;;;;;;;2.10;1.90;;;24.60;73.90;;;;;;5055937;28;20057;-36
2023/08/16 02:26:14;;;;;;;2.10;1.90;;;24.60;73.70;;;;;;5055375;28;20030;-36
2023/08/16 02:28:40;;;;;;;1.70;1.60;;;24.60;73.60;;;;;;5053917;28;20598;-36
2023/08/16 02:31:07;;;;;;;2.42;1.80;;;24.60;73.60;;;;;;5045506;28;20033;-36
2023/08/16 02:33:33;;;;;;;2.33;2.00;;;24.60;73.60;;;;;;5053725;28;20060;-37
2023/08/16 02:35:59;;;;;;;1.90;1.80;;;24.60;73.60;;;;;;5052677;28;20033;-36
2023/08/16 02:38:26;;;;;;;2.15;1.90;;;24.60;73.70;;;;;;5057063;28;20064;-36
2023/08/16 02:40:52;;;;;;;2.07;1.97;;;24.60;73.70;;;;;;5052496;28;20159;-36
2023/08/16 02:43:20;;;;;;;2.00;1.80;;;24.60;73.60;;;;;;5052762;28;20306;-36
2023/08/16 02:45:46;;;;;;;3.15;2.00;;;24.60;73.80;;;;;;5052994;28;20056;-36
2023/08/16 02:48:12;;;;;;;1.70;1.60;;;24.50;73.90;;;;;;5031325;28;20045;-35
2023/08/16 02:50:38;;;;;;;2.25;1.73;;;24.60;74.00;;;;;;5052032;28;20052;-36
2023/08/16 02:53:04;;;;;;;1.90;1.70;;;24.60;74.00;;;;;;5057253;28;20037;-36
2023/08/16 02:55:30;;;;;;;1.87;1.77;;;24.60;74.00;;;;;;5063442;28;20035;-36
2023/08/16 02:57:56;;;;;;;2.00;1.90;;;24.60;74.10;;;;;;5071508;28;20052;-36
2023/08/16 03:00:23;;;;;;;2.20;1.98;;;24.60;74.20;;;;;;5048683;28;20021;-36
2023/08/16 03:02:49;;;;;;;2.70;1.60;;;24.60;74.10;;;;;;5067701;28;20028;-36
2023/08/16 03:05:15;;;;;;;1.80;1.70;;;24.60;74.00;;;;;;5057135;28;20033;-35
2023/08/16 03:07:41;;;;;;;2.20;1.95;;;24.60;74.00;;;;;;5064700;28;20120;-36
2023/08/16 03:10:08;;;;;;;2.10;1.90;;;24.60;74.00;;;;;;5055374;28;20675;-36
2023/08/16 03:12:34;;;;;;;2.15;1.95;;;24.60;73.90;;;;;;5052412;28;20033;-36
2023/08/16 03:15:00;;;;;;;2.42;2.10;;;24.60;73.90;;;;;;5063639;28;20818;-36
2023/08/16 03:17:27;;;;;;;2.08;1.98;;;24.60;74.00;;;;;;5052508;28;20037;-35
2023/08/16 03:19:53;;;;;;;2.25;2.05;;;24.60;74.00;;;;;;5060474;28;20034;-36
2023/08/16 03:22:20;;;;;;;1.90;1.80;;;24.60;74.00;;;;;;5061686;28;20025;-36
2023/08/16 03:24:49;;;;;;;2.20;2.00;;;24.60;74.10;;;;;;5062634;28;20033;-35
2023/08/16 03:27:16;;;;;;;2.20;1.92;;;24.60;74.20;;;;;;5062432;28;20025;-36
2023/08/16 03:29:42;;;;;;;1.80;1.70;;;24.60;74.20;;;;;;5048938;28;20045;-35
2023/08/16 03:32:08;;;;;;;3.50;2.10;;;24.60;74.20;;;;;;5060974;28;20029;-36
2023/08/16 03:34:34;;;;;;;1.88;1.67;;;24.60;74.20;;;;;;5034015;28;20348;-36
2023/08/16 03:37:00;;;;;;;2.33;2.13;;;24.60;74.30;;;;;;5039256;28;20025;-36
2023/08/16 03:39:26;;;;;;;2.20;2.00;;;24.60;74.40;;;;;;5062951;28;20017;-36
2023/08/16 03:41:53;;;;;;;2.08;1.88;;;24.50;74.30;;;;;;5051416;28;20057;-35
2023/08/16 03:44:19;;;;;;;2.20;1.90;;;24.60;74.30;;;;;;5052249;28;20505;-35
2023/08/16 03:46:45;;;;;;;1.98;1.88;;;24.50;74.20;;;;;;5052502;28;20033;-36
2023/08/16 03:49:11;;;;;;;2.17;1.98;;;24.50;74.20;;;;;;5061107;28;20444;-36
2023/08/16 03:51:37;;;;;;;1.93;1.80;;;24.50;74.20;;;;;;5056999;28;20068;-36
2023/08/16 03:54:04;;;;;;;2.20;2.00;;;24.50;74.20;;;;;;5055124;28;20033;-33
2023/08/16 03:56:30;;;;;;;1.95;1.85;;;24.50;74.20;;;;;;5056455;28;20040;-36
2023/08/16 03:58:56;;;;;;;2.78;2.05;;;24.50;74.30;;;;;;5055146;28;20124;-36
2023/08/16 04:01:22;;;;;;;1.92;1.80;;;24.50;74.30;;;;;;5049121;28;20030;-36
2023/08/16 04:03:49;;;;;;;2.53;2.10;;;24.50;74.30;;;;;;5044012;28;20029;-36
2023/08/16 04:06:19;;;;;;;2.27;1.93;;;24.50;74.40;;;;;;5047361;28;20032;-35
2023/08/16 04:08:45;;;;;;;2.20;2.00;;;24.50;74.50;;;;;;5048307;28;20190;-36
2023/08/16 04:11:11;;;;;;;1.90;1.80;;;24.50;74.50;;;;;;5049354;28;20048;-36
2023/08/16 04:13:38;;;;;;;2.10;1.90;;;24.50;74.40;;;;;;5030005;28;20041;-36
2023/08/16 04:16:04;;;;;;;1.63;1.53;;;24.50;74.50;;;;;;5052694;28;20036;-35
2023/08/16 04:18:30;;;;;;;1.77;1.60;;;24.50;74.40;;;;;;5050619;28;20033;-36
2023/08/16 04:20:56;;;;;;;2.20;1.60;;;24.50;74.60;;;;;;5058417;28;20401;-36
2023/08/16 04:23:23;;;;;;;3.38;1.88;;;24.50;74.60;;;;;;5048429;28;20037;-36
2023/08/16 04:25:50;;;;;;;1.88;1.70;;;24.50;74.60;;;;;;5054053;28;20056;-35
2023/08/16 04:28:16;;;;;;;1.75;1.65;;;24.50;74.60;;;;;;5060826;28;20068;-36
2023/08/16 04:31:04;;;;;;;1.77;1.67;;;24.50;74.50;;;;;;4995373;28;20050;-34
2023/08/16 04:33:31;;;;;;;1.92;1.73;;;24.50;74.50;;;;;;4999905;28;20046;-34
2023/08/16 04:35:57;;;;;;;2.13;1.92;;;24.50;74.60;;;;;;4999820;28;20046;-34
2023/08/16 04:38:23;;;;;;;2.57;1.90;;;24.50;74.60;;;;;;4997892;28;20540;-34
2023/08/16 04:40:49;;;;;;;1.63;1.50;;;24.50;74.70;;;;;;4994566;28;20038;-34
2023/08/16 04:43:16;;;;;;;2.35;1.60;;;24.50;74.70;;;;;;5000131;28;20042;-34
2023/08/16 04:45:42;;;;;;;1.70;1.60;;;24.50;74.70;;;;;;5000131;28;20039;-34
2023/08/16 04:48:09;;;;;;;1.98;1.67;;;24.50;74.70;;;;;;4999691;28;20070;-34
2023/08/16 04:50:35;;;;;;;1.83;1.60;;;24.50;74.80;;;;;;5003256;28;20073;-34
2023/08/16 04:53:02;;;;;;;1.73;1.50;;;24.50;74.90;;;;;;4999430;28;20031;-34
2023/08/16 04:55:29;;;;;;;1.70;1.58;;;24.50;74.80;;;;;;5003492;28;20030;-34
2023/08/16 04:57:55;;;;;;;2.35;1.58;;;24.50;75.00;;;;;;5003072;28;20053;-34
2023/08/16 05:00:21;;;;;;;1.40;1.30;;;24.50;75.00;;;;;;5003565;28;20034;-35
2023/08/16 05:02:47;;;;;;;1.73;1.63;;;24.40;74.80;;;;;;5003315;28;20066;-34
2023/08/16 05:05:14;;;;;;;2.95;1.77;;;24.40;74.90;;;;;;4995687;28;20026;-34
2023/08/16 05:07:40;;;;;;;1.50;1.40;;;24.40;74.90;;;;;;5014478;28;20060;-34
2023/08/16 05:10:06;;;;;;;2.05;1.40;;;24.40;75.60;;;;;;5060895;28;20033;-34
2023/08/16 05:12:32;;;;;;;1.60;1.50;;;24.40;75.00;;;;;;5067712;28;20107;-34
2023/08/16 05:14:58;;;;;;;1.42;1.25;;;24.40;74.90;;;;;;5066025;28;20073;-34
2023/08/16 05:17:25;;;;;;;1.60;1.40;;;24.40;74.90;;;;;;5076237;28;20119;-34
2023/08/16 05:19:51;;;;;;;1.50;1.40;;;24.40;74.90;;;;;;5075757;28;20040;-34
2023/08/16 05:22:19;;;;;;;1.40;1.30;;;24.40;75.00;;;;;;5067768;28;20025;-34
2023/08/16 05:24:45;;;;;;;2.80;1.52;;;24.40;74.90;;;;;;5057636;28;20105;-34
2023/08/16 05:27:14;;;;;;;1.58;1.30;;;24.40;74.90;;;;;;5055855;28;20030;-34
2023/08/16 05:29:40;;;;;;;1.83;1.40;;;24.40;75.00;;;;;;5055168;28;20037;-34
2023/08/16 05:32:07;;;;;;;1.40;1.30;;;24.40;75.10;;;;;;5057177;28;20097;-35
2023/08/16 05:34:33;;;;;;;1.40;1.30;;;24.30;75.00;;;;;;5050999;28;20057;-35
2023/08/16 05:36:59;;;;;;;1.48;1.38;;;24.40;75.10;;;;;;5052729;28;20045;-34
2023/08/16 05:39:25;;;;;;;1.33;1.23;;;24.40;75.20;;;;;;5055223;28;20100;-35
2023/08/16 05:41:52;;;;;;;1.38;1.27;;;24.40;75.20;;;;;;5053192;28;20032;-34
2023/08/16 05:44:18;;;;;;;1.50;1.40;;;24.30;75.10;;;;;;5054641;28;21177;-36
2023/08/16 05:46:44;;;;;;;1.75;1.30;;;24.30;75.10;;;;;;5050964;28;20028;-34
2023/08/16 05:49:10;;;;;;;1.77;1.23;;;24.30;75.10;;;;;;5054873;28;20048;-34
2023/08/16 05:51:36;;;;;;;3.08;1.30;;;24.30;75.10;;;;;;5052653;28;20044;-34
2023/08/16 05:54:03;;;;;;;1.50;1.40;;;24.30;75.10;;;;;;5060583;28;20028;-34
2023/08/16 05:56:29;;;;;;;2.05;1.27;;;24.30;75.10;;;;;;5064039;28;20049;-35
2023/08/16 05:58:55;;;;;;;1.53;1.10;;;24.30;75.20;;;;;;5063836;28;20049;-34
2023/08/16 06:01:21;;;;;;;1.30;1.20;;;24.30;75.20;;;;;;5044853;28;20033;-34
2023/08/16 06:03:47;;;;;;;1.80;1.40;;;24.30;75.20;;;;;;5052621;28;20056;-34
2023/08/16 06:06:14;;;;;;;1.40;1.02;;;24.30;75.20;;;;;;5057413;28;20572;-34
2023/08/16 06:08:40;;;;;;;2.47;1.27;;;24.30;75.20;;;;;;5055710;28;20094;-35
2023/08/16 06:11:08;;;;;;;1.33;1.10;;;24.30;75.20;;;;;;5053581;28;20581;-34
2023/08/16 06:13:34;;;;;;;1.13;1.02;;;24.30;75.20;;;;;;5053835;28;20456;-34
2023/08/16 06:16:00;;;;;;;1.10;1.00;;;24.30;75.20;;;;;;5055118;28;20097;-34
2023/08/16 06:18:26;;;;;;;1.20;1.10;;;24.30;75.20;;;;;;5055388;28;20062;-33
2023/08/16 06:20:53;;;;;;;1.58;1.10;;;24.30;75.40;;;;;;5062024;28;20021;-35
2023/08/16 06:23:19;;;;;;;1.13;1.00;;;24.30;75.40;;;;;;5060937;28;20025;-34
2023/08/16 06:25:45;;;;;;;1.10;1.00;;;24.30;75.40;;;;;;5062348;28;20485;-34
2023/08/16 06:28:11;;;;;;;1.50;1.40;;;24.20;75.30;;;;;;5059932;28;20131;-34
2023/08/16 06:30:37;;;;;;;1.10;1.00;;;24.20;75.30;;;;;;5057096;28;20056;-34
2023/08/16 06:33:04;;;;;;;1.10;1.00;;;24.20;75.40;;;;;;5053175;28;20127;-35
2023/08/16 06:35:31;;;;;;;0.90;0.90;;;24.20;75.30;;;;;;5049532;28;20017;-34
2023/08/16 06:37:57;;;;;;;1.30;1.15;;;24.20;75.40;;;;;;5054869;28;20676;-34
2023/08/16 06:40:24;;;;;;;1.40;1.20;;;24.20;75.40;;;;;;5058882;28;20084;-34
2023/08/16 06:42:50;;;;;;;1.23;1.13;;;24.20;75.40;;;;;;5027697;28;20086;-34
2023/08/16 06:45:16;;;;;;;1.08;0.98;;;24.20;75.40;;;;;;5051219;28;20022;-35
2023/08/16 06:47:42;;;;;;;2.50;1.13;;;24.20;75.50;;;;;;5062289;28;20044;-34
2023/08/16 06:50:09;;;;;;;1.40;0.90;;;24.20;75.40;;;;;;5055461;28;20087;-34
2023/08/16 06:52:35;;;;;;;1.13;0.98;;;24.20;75.60;;;;;;5055932;28;20029;-34
2023/08/16 06:55:02;;;;;;;2.45;1.10;;;24.20;75.50;;;;;;5061165;28;20096;-34
2023/08/16 06:57:28;;;;;;;1.13;1.02;;;24.20;75.70;;;;;;5055214;28;20051;-35
2023/08/16 06:59:54;;;;;;;1.50;1.08;;;24.20;75.60;;;;;;5054764;28;20029;-34
2023/08/16 07:02:20;;;;;;;1.88;0.98;;;24.10;75.50;;;;;;5061322;28;20029;-35
2023/08/16 07:04:46;;;;;;;1.00;0.90;;;24.10;75.50;;;;;;5062001;28;20032;-35
2023/08/16 07:07:12;;;;;;;1.13;1.02;;;24.10;75.60;;;;;;5053534;28;20256;-34
2023/08/16 07:09:39;;;;;;;1.15;1.05;;;24.10;75.60;;;;;;5056419;28;20040;-34
2023/08/16 07:12:06;;;;;;;1.63;1.00;;;24.10;75.50;;;;;;5052852;28;20028;-34
2023/08/16 07:14:32;;;;;;;1.35;0.90;;;24.10;75.50;;;;;;5047895;28;20037;-34
2023/08/16 07:17:18;;;;;;;1.15;0.82;;;24.10;75.50;;;;;;5045340;28;20033;-34
2023/08/16 07:19:48;;;;;;;1.20;0.82;;;24.10;75.50;;;;;;4962037;29;20095;-34
2023/08/16 07:22:14;;;;;;;1.30;0.70;;;24.10;75.50;;;;;;4961573;29;20046;-35
2023/08/16 07:24:40;;;;;;;1.60;0.95;;;24.10;75.60;;;;;;4959906;28;20039;-35
2023/08/16 07:27:07;;;;;;;1.60;0.90;;;24.10;75.50;;;;;;4961799;28;20039;-35
2023/08/16 07:29:33;;;;;;;0.90;0.90;;;24.10;75.60;;;;;;4960554;28;20090;-35
2023/08/16 07:32:00;;;;;;;1.00;0.90;;;24.10;75.70;;;;;;4962515;28;20046;-35
2023/08/16 07:34:26;;;;;;;1.02;0.80;;;24.10;75.60;;;;;;4966887;28;20051;-35
2023/08/16 07:36:52;;;;;;;0.70;0.70;;;24.00;75.70;;;;;;4959734;28;20040;-35
2023/08/16 07:39:18;;;;;;;1.05;0.95;;;24.00;75.60;;;;;;4963768;28;20039;-35
2023/08/16 07:41:44;;;;;;;1.20;0.90;;;24.00;75.60;;;;;;4959677;28;20039;-35
2023/08/16 07:44:10;;;;;;;0.70;0.70;;;24.00;75.60;;;;;;4963417;28;20050;-35
2023/08/16 07:46:37;;;;;;;0.80;0.80;;;24.00;75.70;;;;;;4962340;28;20039;-35
2023/08/16 07:49:04;;;;;;;1.00;0.90;;;24.00;75.70;;;;;;4963790;28;20053;-35
2023/08/16 07:51:30;;;;;;;0.88;0.88;;;24.00;75.70;;;;;;4963415;28;20042;-36
2023/08/16 07:53:56;;;;;;;0.90;0.70;;;24.00;75.70;;;;;;4960892;28;20039;-35
2023/08/16 07:56:22;;;;;;;1.23;0.70;;;24.00;75.70;;;;;;4992994;28;20033;-35
2023/08/16 07:58:48;;;;;;;0.90;0.90;;;24.00;75.70;;;;;;5062508;28;20063;-36
2023/08/16 08:01:14;;;;;;;1.67;0.80;;;24.00;75.70;;;;;;5068688;28;20087;-35
2023/08/16 08:03:40;;;;;;;1.42;0.80;;;24.00;75.70;;;;;;5072539;28;20089;-35
2023/08/16 08:06:09;;;;;;;1.27;1.00;;;24.00;75.70;;;;;;5052766;28;20033;-35
2023/08/16 08:08:35;;;;;;;1.90;0.80;;;24.00;75.70;;;;;;5067446;28;20048;-36
2023/08/16 08:11:01;;;;;;;1.50;0.80;;;24.00;75.80;;;;;;5063293;28;20028;-35
2023/08/16 08:13:27;;;;;;;1.15;0.95;;;24.00;75.70;;;;;;5072121;28;20024;-35
2023/08/16 08:15:54;;;;;;;1.05;0.73;;;23.90;75.70;;;;;;5069904;28;20051;-35
2023/08/16 08:18:21;;;;;;;1.15;0.80;;;23.90;75.80;;;;;;5068725;28;20063;-35
2023/08/16 08:20:47;;;;;;;0.80;0.80;;;23.90;75.80;;;;;;5068886;28;20028;-35
2023/08/16 08:23:15;;;;;;;0.63;0.63;;;23.90;75.90;;;;;;5059185;28;20040;-35
2023/08/16 08:25:44;;;;;;;0.77;0.77;;;23.90;75.80;;;;;;5065155;28;20029;-35
2023/08/16 08:28:10;;;;;;;2.65;0.80;;;23.90;75.80;;;;;;5063175;28;20033;-35
2023/08/16 08:30:36;;;;;;;0.68;0.68;;;23.90;75.90;;;;;;5074098;28;20036;-35
2023/08/16 08:33:03;;;;;;;1.30;0.73;;;23.90;75.90;;;;;;5064729;28;20037;-35
2023/08/16 08:35:29;;;;;;;1.40;0.88;;;23.90;75.90;;;;;;5078170;28;20035;-35
2023/08/16 08:37:55;;;;;;;2.58;0.82;;;23.90;75.90;;;;;;5076666;28;20096;-35
2023/08/16 08:40:21;;;;;;;1.47;0.73;;;23.90;75.90;;;;;;5071991;28;20085;-35
2023/08/16 08:42:47;;;;;;;0.65;0.55;;;23.80;75.90;;;;;;5064503;28;20115;-35
2023/08/16 08:45:15;;;;;;;1.10;0.80;;;23.80;75.90;;;;;;5060002;28;20034;-35
2023/08/16 08:47:42;;;;;;;;;;;23.80;75.90;;;;;;5054533;28;20032;-35
2023/08/16 08:50:08;;;;;;;1.70;0.77;;;23.80;75.90;;;;;;5063824;28;19908;-36
2023/08/16 08:52:34;;;;;;;1.10;0.70;;;23.80;76.00;;;;;;5061279;28;20035;-35
2023/08/16 08:55:01;;;;;;;1.85;0.80;;;23.80;76.00;;;;;;5051918;28;20036;-36
2023/08/16 08:57:28;;;;;;;;;;;23.80;75.90;;;;;;5053794;28;20048;-35
2023/08/16 08:59:58;;;;;;;0.73;0.70;;;23.80;76.00;;;;;;5055436;28;19913;-35
2023/08/16 09:02:24;;;;;;;0.73;0.63;;;23.80;75.90;;;;;;5038468;28;20029;-36
2023/08/16 09:04:51;;;;;;;1.00;0.90;;;23.80;76.00;;;;;;5050447;28;20116;-36
2023/08/16 09:07:17;;;;;;;1.83;0.80;;;23.80;76.00;;;;;;5053459;28;20063;-35
2023/08/16 09:09:48;;;;;;;0.60;0.60;;;23.80;76.00;;;;;;5039364;28;20089;-36
2023/08/16 09:12:15;;;;;;;0.70;0.70;;;23.70;75.90;;;;;;5056066;28;20022;-35
2023/08/16 09:14:41;;;;;;;1.52;0.70;;;23.70;75.90;;;;;;5057409;28;20039;-36
2023/08/16 09:17:07;;;;;;;0.80;0.70;;;23.70;75.90;;;;;;5053632;28;20032;-35
2023/08/16 09:19:33;;;;;;;0.73;0.60;;;23.70;76.00;;;;;;5054700;28;20885;-36
2023/08/16 09:21:59;;;;;;;0.93;0.75;;;23.70;76.00;;;;;;5053131;28;20096;-35
2023/08/16 09:24:25;;;;;;;0.60;0.60;;;23.70;75.90;;;;;;5061584;28;20056;-35
2023/08/16 09:26:52;;;;;;;0.57;0.57;;;23.70;76.00;;;;;;5063627;28;20036;-36
2023/08/16 09:29:18;;;;;;;0.50;0.50;;;23.70;76.00;;;;;;5071299;28;20105;-35
2023/08/16 09:31:47;;;;;;;0.60;0.60;;;23.70;76.00;;;;;;5071966;28;20029;-35
2023/08/16 09:34:14;;;;;;;0.70;0.57;;;23.70;76.10;;;;;;5047157;28;20040;-35
2023/08/16 09:36:45;;;;;;;0.73;0.60;;;23.70;76.00;;;;;;5070303;28;20032;-35
2023/08/16 09:39:11;;;;;;;2.25;0.68;;;23.70;76.10;;;;;;5050203;28;20028;-34
2023/08/16 09:41:49;;;;;;;1.58;0.70;;;23.70;76.10;;;;;;5076621;28;20105;-35
2023/08/16 09:44:15;;;;;;;0.60;0.60;;;23.60;76.00;;;;;;5064748;28;20037;-35
2023/08/16 09:46:41;;;;;;;0.60;0.60;;;23.60;76.00;;;;;;5061269;28;20049;-35
2023/08/16 09:49:08;;;;;;;0.63;0.50;;;23.60;75.90;;;;;;5056493;28;20045;-35
2023/08/16 09:51:39;;;;;;;1.00;0.77;;;23.60;76.00;;;;;;5054461;28;20017;-35
2023/08/16 09:54:11;;;;;;;1.10;0.52;;;23.60;75.90;;;;;;5068359;28;20052;-35
2023/08/16 09:56:38;;;;;;;0.55;0.52;;;23.60;76.00;;;;;;5053354;28;20032;-35
2023/08/16 09:59:08;;;;;;;0.95;0.70;;;23.60;76.00;;;;;;5070420;28;20103;-35
2023/08/16 10:01:35;;;;;;;1.10;0.60;;;23.60;76.00;;;;;;5058621;28;20028;-36
2023/08/16 10:04:02;;;;;;;0.57;0.57;;;23.60;76.00;;;;;;5067798;28;20072;-35
2023/08/16 10:06:30;;;;;;;1.98;0.70;;;23.60;76.10;;;;;;5056094;28;20021;-36
2023/08/16 10:08:56;;;;;;;0.60;0.60;;;23.60;76.10;;;;;;5063579;28;20048;-36
2023/08/16 10:11:23;;;;;;;0.50;0.50;;;23.60;76.10;;;;;;5058216;28;20028;-36
2023/08/16 10:13:49;;;;;;;0.43;0.43;;;23.60;76.10;;;;;;5067911;28;20044;-36
2023/08/16 10:16:16;;;;;;;1.08;0.77;;;23.60;76.10;;;;;;5067684;28;20025;-36
2023/08/16 10:18:43;;;;;;;0.60;0.60;;;23.60;76.10;;;;;;5061137;28;20861;-36
2023/08/16 10:21:16;;;;;;;0.80;0.65;;;23.50;76.00;;;;;;5053479;28;20282;-36
2023/08/16 10:23:42;;;;;;;0.73;0.50;;;23.50;76.00;;;;;;5034958;28;20057;-36
2023/08/16 10:26:15;;;;;;;0.50;0.50;;;23.50;76.00;;;;;;5055054;28;20449;-35
2023/08/16 10:28:44;;;;;;;0.45;0.45;;;23.50;76.00;;;;;;5063175;28;20044;-36
2023/08/16 10:31:11;;;;;;;1.08;0.60;;;23.50;76.00;;;;;;5036551;28;20043;-36
2023/08/16 10:33:38;;;;;;;0.63;0.50;;;23.50;76.80;;;;;;5058377;28;20045;-35
2023/08/16 10:36:04;;;;;;;1.02;0.60;;;23.50;76.10;;;;;;5045611;28;20059;-35
2023/08/16 10:38:35;;;;;;;0.85;0.50;;;23.50;76.00;;;;;;5055623;28;20033;-35
2023/08/16 10:41:02;;;;;;;0.60;0.60;;;23.50;76.20;;;;;;5047922;28;20044;-35
2023/08/16 10:43:33;;;;;;;;;;;23.50;76.10;;;;;;5062291;28;20088;-36
2023/08/16 10:46:00;;;;;;;0.73;0.65;;;23.50;76.10;;;;;;5053520;28;20373;-36
2023/08/16 10:48:33;;;;;;;0.55;0.55;;;23.50;76.10;;;;;;5044849;28;20048;-36
2023/08/16 10:51:03;;;;;;;1.35;0.60;;;23.40;76.10;;;;;;5011876;28;20052;-35
2023/08/16 10:53:29;;;;;;;1.10;0.55;;;23.40;76.10;;;;;;5053690;28;20029;-35
2023/08/16 10:55:55;;;;;;;0.45;0.45;;;23.40;76.10;;;;;;5027589;28;20109;-35
2023/08/16 10:58:25;;;;;;;2.03;0.60;;;23.40;76.10;;;;;;5052342;28;20574;-36
2023/08/16 11:01:09;;;;;;;0.45;0.45;;;23.40;76.10;;;;;;5052803;28;20064;-36
2023/08/16 11:03:37;;;;;;;0.50;0.50;;;23.40;76.10;;;;;;5044876;28;20071;-36
2023/08/16 11:06:12;;;;;;;0.95;0.50;;;23.40;76.10;;;;;;5052588;28;20029;-36
2023/08/16 11:08:45;;;;;;;0.60;0.52;;;23.40;76.20;;;;;;5052128;28;20097;-35
2023/08/16 11:11:14;;;;;;;0.50;0.50;;;23.40;76.10;;;;;;5054756;28;20025;-35
2023/08/16 11:13:41;;;;;;;0.60;0.60;;;23.30;76.10;;;;;;5052660;28;20557;-36
2023/08/16 11:16:09;;;;;;;0.70;0.50;;;23.30;76.10;;;;;;5047783;28;20061;-36
2023/08/16 11:18:36;;;;;;;0.60;0.50;;;23.30;76.10;;;;;;5062142;28;20041;-36
2023/08/16 11:21:03;;;;;;;;;;;23.30;76.20;;;;;;5054502;28;20029;-36
2023/08/16 11:23:37;;;;;;;0.50;0.50;;;23.30;76.20;;;;;;5051668;28;19968;-35
2023/08/16 11:26:03;;;;;;;1.25;0.60;;;23.30;76.20;;;;;;5051811;28;20053;-36
2023/08/16 11:28:31;;;;;;;3.63;0.70;;;23.30;76.20;;;;;;5044363;28;20040;-36
2023/08/16 11:31:04;;;;;;;0.93;0.50;;;23.30;76.20;;;;;;5044957;28;20033;-35
2023/08/16 11:33:50;;;;;;;1.80;0.80;;;23.30;76.30;;;;;;5049992;28;20211;-36
2023/08/16 11:36:16;;;;;;;0.88;0.60;;;23.30;76.30;;;;;;5044355;28;20021;-35
2023/08/16 11:38:43;;;;;;;0.57;0.45;;;23.30;76.30;;;;;;5044429;28;20132;-36
2023/08/16 11:41:10;;;;;;;;;;;23.30;76.30;;;;;;5052484;28;20040;-35
2023/08/16 11:43:36;;;;;;;0.65;0.65;;;23.30;76.30;;;;;;5054222;28;20384;-36
2023/08/16 11:46:04;;;;;;;1.33;0.63;;;23.30;76.20;;;;;;5040996;28;20104;-36
2023/08/16 11:48:30;;;;;;;0.88;0.60;;;23.20;76.20;;;;;;5061170;28;20033;-34
2023/08/16 11:50:56;;;;;;;0.68;0.68;;;23.20;76.20;;;;;;5043057;28;20033;-36
2023/08/16 11:53:31;;;;;;;0.60;0.50;;;23.20;76.30;;;;;;5057921;28;20112;-34
2023/08/16 11:56:08;;;;;;;0.68;0.68;;;23.20;76.30;;;;;;5059433;28;20037;-35
2023/08/16 11:58:44;;;;;;;1.85;0.50;;;23.20;76.30;;;;;;5051883;28;20033;-34
2023/08/16 12:01:14;;;;;;;0.45;0.45;;;23.20;76.30;;;;;;5056716;28;20130;-33
2023/08/16 12:03:43;;;;;;;1.30;0.70;;;23.20;76.70;;;;;;5065411;28;20037;-34
2023/08/16 12:06:09;;;;;;;2.60;0.43;;;23.20;76.40;;;;;;5063516;28;20029;-34
2023/08/16 12:08:36;;;;;;;0.70;0.50;;;23.20;76.40;;;;;;5055044;28;20037;-34
2023/08/16 12:11:02;;;;;;;1.95;0.68;;;23.20;76.40;;;;;;5061125;28;20081;-34
2023/08/16 12:13:29;;;;;;;0.40;0.40;;;23.20;76.50;;;;;;5050833;28;20040;-34
2023/08/16 12:15:55;;;;;;;1.10;0.40;;;23.10;76.40;;;;;;5061955;28;20044;-34
2023/08/16 12:18:22;;;;;;;1.00;0.60;;;23.20;76.50;;;;;;5064840;28;20033;-34
2023/08/16 12:20:52;;;;;;;2.10;0.50;;;23.20;76.50;;;;;;5065326;28;20032;-34
2023/08/16 12:23:20;;;;;;;0.40;0.40;;;23.10;76.40;;;;;;5063939;28;20029;-34
2023/08/16 12:25:46;;;;;;;;;;;23.10;76.40;;;;;;5065587;28;20052;-34
2023/08/16 12:28:12;;;;;;;1.58;0.50;;;23.10;76.40;;;;;;5063990;28;19923;-34
2023/08/16 12:30:38;;;;;;;0.88;0.60;;;23.10;76.40;;;;;;5044819;28;20121;-34
2023/08/16 12:33:05;;;;;;;2.00;0.60;;;23.10;76.50;;;;;;5057104;28;20053;-34
2023/08/16 12:35:31;;;;;;;1.67;0.60;;;23.10;76.50;;;;;;5064958;28;20277;-35
2023/08/16 12:37:58;;;;;;;0.75;0.45;;;23.10;76.50;;;;;;5038845;28;20033;-34
2023/08/16 12:40:29;;;;;;;0.60;0.57;;;23.10;76.50;;;;;;5057517;28;20029;-34
2023/08/16 12:42:56;;;;;;;0.73;0.60;;;23.10;76.50;;;;;;5057241;28;20131;-34
2023/08/16 12:45:23;;;;;;;0.73;0.50;;;23.10;76.60;;;;;;5051863;28;20028;-34
2023/08/16 12:47:50;;;;;;;1.13;0.70;;;23.10;76.60;;;;;;5047718;28;20444;-36